createdAt,value
2023-05-25T00:01:17.205Z,6.13
2023-05-25T00:03:45.970Z,4.90
2023-05-25T00:06:15.473Z,5.80
2023-05-25T00:08:43.224Z,5.23
2023-05-25T00:11:12.433Z,5.60
2023-05-25T00:13:40.370Z,6.33
2023-05-25T00:16:08.621Z,5.67
2023-05-25T00:18:37.975Z,5.67
2023-05-25T00:21:07.302Z,6.23
2023-05-25T00:23:35.069Z,6.03
2023-05-25T00:26:04.306Z,6.10
2023-05-25T00:28:33.397Z,5.93
2023-05-25T00:31:01.139Z,6.47
2023-05-25T00:33:28.904Z,6.87
2023-05-25T00:35:57.366Z,6.47
2023-05-25T00:38:25.220Z,6.17
2023-05-25T00:40:57.287Z,5.53
2023-05-25T00:43:24.972Z,5.30
2023-05-25T00:45:54.469Z,5.23
2023-05-25T00:48:22.629Z,5.23
2023-05-25T00:50:51.890Z,4.90
2023-05-25T00:53:19.581Z,5.50
2023-05-25T00:55:51.851Z,5.10
2023-05-25T00:58:22.156Z,5.70
2023-05-25T01:00:50.568Z,4.60
2023-05-25T01:03:22.014Z,5.60
2023-05-25T01:05:51.833Z,4.80
2023-05-25T01:08:21.877Z,4.83
2023-05-25T01:10:50.592Z,5.70
2023-05-25T01:13:19.548Z,5.80
2023-05-25T01:15:47.917Z,5.23
2023-05-25T01:18:16.025Z,6.43
2023-05-25T01:20:57.103Z,6.33
2023-05-25T01:23:29.128Z,7.00
2023-05-25T01:26:02.387Z,7.47
2023-05-25T01:28:32.256Z,7.17
2023-05-25T01:31:00.176Z,6.83
2023-05-25T01:33:28.782Z,7.93
2023-05-25T01:35:57.930Z,7.70
2023-05-25T01:38:25.628Z,7.33
2023-05-25T01:40:53.382Z,8.63
2023-05-25T01:43:21.201Z,7.10
2023-05-25T01:45:49.253Z,7.70
2023-05-25T01:48:22.370Z,7.23
2023-05-25T01:50:54.768Z,7.90
2023-05-25T01:53:25.352Z,8.17
2023-05-25T01:55:57.446Z,8.40
2023-05-25T01:58:26.015Z,9.20
2023-05-25T02:00:54.079Z,8.40
2023-05-25T02:03:22.650Z,7.67
2023-05-25T02:05:50.535Z,7.93
2023-05-25T02:08:18.246Z,7.83
2023-05-25T02:10:47.312Z,8.90
2023-05-25T02:13:15.511Z,7.43
2023-05-25T02:15:43.466Z,8.23
2023-05-25T02:18:11.424Z,7.93
2023-05-25T02:20:39.202Z,8.17
2023-05-25T02:23:07.191Z,9.03
2023-05-25T02:25:34.914Z,8.07
2023-05-25T02:28:04.820Z,8.90
2023-05-25T02:30:32.571Z,7.90
2023-05-25T02:33:02.366Z,7.87
2023-05-25T02:35:30.110Z,8.40
2023-05-25T02:37:57.786Z,7.73
2023-05-25T02:40:25.781Z,7.53
2023-05-25T02:42:53.554Z,7.33
2023-05-25T02:45:22.692Z,7.73
2023-05-25T02:47:50.547Z,7.63
2023-05-25T02:50:18.338Z,7.70
2023-05-25T02:52:46.733Z,7.93
2023-05-25T02:55:14.629Z,7.73
2023-05-25T02:57:42.399Z,7.90
2023-05-25T03:00:12.210Z,7.50
2023-05-25T03:02:41.348Z,8.00
2023-05-25T03:05:09.376Z,7.70
2023-05-25T03:07:37.127Z,7.03
2023-05-25T03:10:05.447Z,7.13
2023-05-25T03:12:33.176Z,7.80
2023-05-25T03:15:00.910Z,8.53
2023-05-25T03:17:28.736Z,9.40
2023-05-25T03:19:57.957Z,9.70
2023-05-25T03:22:26.639Z,9.23
2023-05-25T03:24:54.355Z,7.13
2023-05-25T03:27:22.073Z,8.50
2023-05-25T03:29:50.094Z,8.70
2023-05-25T03:32:17.837Z,9.13
2023-05-25T03:34:45.625Z,7.83
2023-05-25T03:37:14.703Z,8.63
2023-05-25T03:39:42.418Z,9.23
2023-05-25T03:42:10.132Z,8.83
2023-05-25T03:44:39.821Z,9.40
2023-05-25T03:47:08.753Z,8.87
2023-05-25T03:49:36.442Z,8.93
2023-05-25T03:52:04.489Z,8.60
2023-05-25T03:54:34.081Z,9.27
2023-05-25T03:57:03.450Z,9.60
2023-05-25T03:59:31.800Z,8.03
2023-05-25T04:01:59.508Z,8.67
2023-05-25T04:04:28.289Z,7.20
2023-05-25T04:06:56.056Z,8.17
2023-05-25T04:09:23.911Z,7.83
2023-05-25T04:11:53.127Z,8.37
2023-05-25T04:14:21.495Z,8.00
2023-05-25T04:16:49.217Z,8.33
2023-05-25T04:19:17.009Z,8.17
2023-05-25T04:21:44.703Z,7.33
2023-05-25T04:24:12.484Z,8.10
2023-05-25T04:26:41.495Z,8.97
2023-05-25T04:29:10.886Z,8.87
2023-05-25T04:31:39.219Z,7.90
2023-05-25T04:34:09.630Z,7.80
2023-05-25T04:36:38.952Z,7.50
2023-05-25T04:39:07.353Z,7.60
2023-05-25T04:41:35.143Z,8.90
2023-05-25T04:44:09.856Z,8.53
2023-05-25T04:46:39.555Z,9.80
2023-05-25T04:49:08.316Z,9.40
2023-05-25T04:51:37.042Z,8.80
2023-05-25T04:54:05.000Z,9.03
2023-05-25T04:56:32.715Z,8.17
2023-05-25T04:59:00.552Z,9.00
2023-05-25T05:01:29.189Z,8.40
2023-05-25T05:03:58.593Z,7.83
2023-05-25T05:06:26.356Z,6.30
2023-05-25T05:08:54.026Z,7.40
2023-05-25T05:11:23.504Z,6.90
2023-05-25T05:13:51.315Z,5.93
2023-05-25T05:16:19.096Z,6.63
2023-05-25T05:18:46.909Z,6.70
2023-05-25T05:21:16.052Z,6.67
2023-05-25T05:23:44.231Z,7.50
2023-05-25T05:26:15.129Z,7.77
2023-05-25T05:28:42.959Z,8.37
2023-05-25T05:31:12.235Z,8.73
2023-05-25T05:33:40.458Z,7.73
2023-05-25T05:36:09.030Z,8.60
2023-05-25T05:38:40.337Z,7.93
2023-05-25T05:41:13.386Z,7.33
2023-05-25T05:43:42.384Z,7.97
2023-05-25T05:46:10.597Z,7.73
2023-05-25T05:48:38.589Z,6.90
2023-05-25T05:51:06.949Z,8.07
2023-05-25T05:53:35.426Z,8.77
2023-05-25T05:56:04.694Z,8.67
2023-05-25T05:58:32.623Z,8.40
2023-05-25T06:01:01.479Z,9.20
2023-05-25T06:03:29.388Z,8.57
2023-05-25T06:05:57.213Z,9.23
2023-05-25T06:08:25.186Z,9.47
2023-05-25T06:10:52.983Z,10.23
2023-05-25T06:13:22.041Z,9.33
2023-05-25T06:15:49.766Z,9.57
2023-05-25T06:18:17.493Z,9.30
2023-05-25T06:20:45.718Z,8.23
2023-05-25T06:23:14.153Z,8.97
2023-05-25T06:25:42.087Z,7.43
2023-05-25T06:28:10.296Z,7.20
2023-05-25T06:30:39.384Z,8.07
2023-05-25T06:33:08.606Z,7.27
2023-05-25T06:35:36.425Z,7.17
2023-05-25T06:38:04.557Z,7.30
2023-05-25T06:40:32.396Z,7.63
2023-05-25T06:43:00.103Z,7.27
2023-05-25T06:45:27.824Z,7.50
2023-05-25T06:47:57.521Z,7.67
2023-05-25T06:50:25.392Z,6.83
2023-05-25T06:52:53.119Z,6.90
2023-05-25T06:55:20.838Z,6.27
2023-05-25T06:57:48.538Z,6.90
2023-05-25T07:00:17.592Z,6.53
2023-05-25T07:02:45.505Z,5.83
2023-05-25T07:05:14.681Z,6.47
2023-05-25T07:07:42.489Z,5.67
2023-05-25T07:10:10.616Z,5.60
2023-05-25T07:12:38.318Z,6.03
2023-05-25T07:15:07.127Z,5.37
2023-05-25T07:17:36.439Z,4.67
2023-05-25T07:20:06.265Z,4.97
2023-05-25T07:22:35.824Z,6.07
2023-05-25T07:25:03.572Z,5.43
2023-05-25T07:27:33.877Z,5.47
2023-05-25T07:30:01.700Z,6.13
2023-05-25T07:32:29.451Z,5.53
2023-05-25T07:34:57.231Z,5.30
2023-05-25T07:37:25.129Z,4.63
2023-05-25T07:39:54.191Z,4.17
2023-05-25T07:42:21.945Z,4.00
2023-05-25T07:44:49.955Z,3.97
2023-05-25T07:47:17.791Z,4.03
2023-05-25T07:49:45.474Z,3.77
2023-05-25T07:52:13.332Z,3.63
2023-05-25T07:54:41.064Z,3.53
2023-05-25T07:57:10.197Z,3.90
2023-05-25T07:59:38.054Z,3.33
2023-05-25T08:02:06.710Z,4.23
2023-05-25T08:04:35.610Z,4.37
2023-05-25T08:07:03.762Z,4.17
2023-05-25T08:09:31.532Z,3.80
2023-05-25T08:12:15.021Z,4.27
2023-05-25T08:14:49.109Z,4.23
2023-05-25T08:17:16.913Z,3.63
2023-05-25T08:19:44.665Z,3.50
2023-05-25T08:22:12.407Z,3.60
2023-05-25T08:24:40.112Z,3.83
2023-05-25T08:27:07.874Z,3.90
2023-05-25T08:29:35.618Z,3.03
2023-05-25T08:32:04.877Z,4.10
2023-05-25T08:34:32.722Z,3.83
2023-05-25T08:37:00.669Z,3.53
2023-05-25T08:39:28.405Z,3.60
2023-05-25T08:41:56.156Z,3.17
2023-05-25T08:44:23.929Z,3.60
2023-05-25T08:46:51.904Z,3.37
2023-05-25T08:49:22.186Z,3.17
2023-05-25T08:51:51.778Z,3.10
2023-05-25T08:54:21.204Z,4.17
2023-05-25T08:56:52.099Z,3.00
2023-05-25T08:59:30.932Z,2.87
2023-05-25T09:02:05.489Z,4.03
2023-05-25T09:04:35.945Z,4.20
2023-05-25T09:07:10.509Z,3.50
2023-05-25T09:09:39.648Z,3.37
2023-05-25T09:12:08.336Z,3.17
2023-05-25T09:14:37.600Z,3.27
2023-05-25T09:17:06.026Z,3.30
2023-05-25T09:19:36.640Z,3.37
2023-05-25T09:22:14.819Z,3.27
2023-05-25T09:24:44.662Z,3.37
2023-05-25T09:27:14.351Z,3.70
2023-05-25T09:29:42.240Z,3.80
2023-05-25T09:32:10.279Z,3.40
2023-05-25T09:34:39.859Z,3.37
2023-05-25T09:37:12.929Z,3.67
2023-05-25T09:39:41.438Z,3.97
2023-05-25T09:42:09.773Z,4.43
2023-05-25T09:44:37.580Z,3.83
2023-05-25T09:47:05.880Z,3.23
2023-05-25T09:49:33.988Z,3.13
2023-05-25T09:52:03.373Z,3.37
2023-05-25T09:54:31.394Z,3.07
2023-05-25T09:56:59.515Z,3.13
2023-05-25T09:59:27.901Z,3.37
2023-05-25T10:01:56.027Z,3.13
2023-05-25T10:04:23.946Z,3.77
2023-05-25T10:06:52.792Z,4.00
2023-05-25T10:09:21.958Z,3.87
2023-05-25T10:11:51.636Z,4.40
2023-05-25T10:14:28.002Z,4.00
2023-05-25T10:16:59.652Z,4.00
2023-05-25T10:19:32.145Z,4.03
2023-05-25T10:22:05.582Z,3.43
2023-05-25T10:24:36.649Z,4.37
2023-05-25T10:27:18.446Z,3.47
2023-05-25T10:29:53.912Z,2.97
2023-05-25T10:32:21.737Z,2.93
2023-05-25T10:34:49.999Z,2.67
2023-05-25T10:37:18.341Z,4.33
2023-05-25T10:39:47.478Z,3.20
2023-05-25T10:42:15.222Z,3.13
2023-05-25T10:44:43.531Z,4.57
2023-05-25T10:47:11.789Z,4.37
2023-05-25T10:49:53.575Z,3.87
2023-05-25T10:52:21.506Z,4.53
2023-05-25T10:54:50.767Z,4.80
2023-05-25T10:57:22.662Z,5.27
2023-05-25T10:59:51.586Z,5.37
2023-05-25T11:02:23.436Z,3.90
2023-05-25T11:04:51.715Z,5.33
2023-05-25T11:07:22.974Z,4.67
2023-05-25T11:09:59.537Z,4.53
2023-05-25T11:12:27.916Z,3.97
2023-05-25T11:15:15.223Z,4.17
2023-05-25T11:17:47.951Z,4.17
2023-05-25T11:20:28.698Z,4.57
2023-05-25T11:22:58.861Z,4.37
2023-05-25T11:25:41.693Z,4.90
2023-05-25T11:28:11.919Z,5.53
2023-05-25T11:30:41.850Z,4.67
2023-05-25T11:33:10.113Z,4.40
2023-05-25T11:35:41.553Z,4.30
2023-05-25T11:38:09.442Z,4.20
2023-05-25T11:40:40.320Z,4.63
2023-05-25T11:43:09.779Z,4.60
2023-05-25T11:45:39.292Z,5.10
2023-05-25T11:48:07.442Z,4.40
2023-05-25T11:50:35.244Z,5.27
2023-05-25T11:53:06.143Z,4.63
2023-05-25T11:55:33.969Z,4.23
2023-05-25T11:58:01.756Z,5.50
2023-05-25T12:00:31.488Z,4.83
2023-05-25T12:02:59.553Z,4.30
2023-05-25T12:05:27.424Z,5.13
2023-05-25T12:07:55.144Z,5.27
2023-05-25T12:10:22.828Z,5.43
2023-05-25T12:12:51.846Z,4.93
2023-05-25T12:15:22.600Z,4.93
2023-05-25T12:17:52.418Z,4.17
2023-05-25T12:20:21.096Z,4.87
2023-05-25T12:22:49.182Z,5.27
2023-05-25T12:25:20.878Z,4.60
2023-05-25T12:27:48.656Z,5.03
2023-05-25T12:30:16.813Z,4.43
2023-05-25T12:33:02.252Z,5.10
2023-05-25T12:35:32.187Z,4.97
2023-05-25T12:38:12.447Z,5.37
2023-05-25T12:40:40.167Z,4.80
2023-05-25T12:43:07.964Z,4.67
2023-05-25T12:45:40.814Z,5.30
2023-05-25T12:48:10.161Z,5.47
2023-05-25T12:50:37.968Z,4.60
2023-05-25T12:53:06.134Z,5.67
2023-05-25T12:55:36.312Z,4.43
2023-05-25T12:58:05.962Z,5.67
2023-05-25T13:00:34.644Z,4.73
2023-05-25T13:03:02.607Z,4.27
2023-05-25T13:05:34.012Z,4.23
2023-05-25T13:08:03.094Z,4.07
2023-05-25T13:10:32.585Z,4.67
2023-05-25T13:13:00.952Z,4.83
2023-05-25T13:15:29.271Z,5.70
2023-05-25T13:17:58.390Z,3.97
2023-05-25T13:20:27.467Z,5.77
2023-05-25T13:22:56.700Z,4.30
2023-05-25T13:25:27.147Z,4.00
2023-05-25T13:27:56.912Z,3.87
2023-05-25T13:30:24.753Z,5.10
2023-05-25T13:32:52.891Z,4.60
2023-05-25T13:35:34.117Z,4.73
2023-05-25T13:38:03.744Z,5.10
2023-05-25T13:40:31.873Z,4.70
2023-05-25T13:42:59.679Z,5.20
2023-05-25T13:45:27.527Z,4.70
2023-05-25T13:47:55.391Z,4.10
2023-05-25T13:50:23.277Z,4.03
2023-05-25T13:52:51.059Z,5.17
2023-05-25T13:55:20.172Z,5.23
2023-05-25T13:57:47.947Z,5.87
2023-05-25T14:00:16.153Z,4.50
2023-05-25T14:02:43.980Z,4.60
2023-05-25T14:05:11.830Z,5.80
2023-05-25T14:07:41.267Z,4.43
2023-05-25T14:10:09.942Z,4.97
2023-05-25T14:12:39.376Z,4.33
2023-05-25T14:15:08.811Z,5.60
2023-05-25T14:17:36.616Z,4.40
2023-05-25T14:20:05.296Z,5.87
2023-05-25T14:22:33.128Z,5.17
2023-05-25T14:25:00.903Z,3.70
2023-05-25T14:27:28.856Z,5.23
2023-05-25T14:29:57.887Z,6.97
2023-05-25T14:32:25.708Z,5.73
2023-05-25T14:34:53.486Z,5.70
2023-05-25T14:37:21.189Z,5.30
2023-05-25T14:39:48.895Z,4.37
2023-05-25T14:42:16.727Z,5.33
2023-05-25T14:44:44.480Z,5.80
2023-05-25T14:47:13.625Z,4.73
2023-05-25T14:49:41.431Z,4.60
2023-05-25T14:52:09.147Z,5.67
2023-05-25T14:54:37.112Z,4.37
2023-05-25T14:57:05.001Z,3.90
2023-05-25T14:59:32.663Z,5.10
2023-05-25T15:02:00.425Z,4.40
2023-05-25T15:04:30.844Z,4.57
2023-05-25T15:06:59.074Z,5.73
2023-05-25T15:09:27.185Z,5.83
2023-05-25T15:11:55.045Z,5.53
2023-05-25T15:14:22.841Z,4.60
2023-05-25T15:16:50.645Z,5.40
2023-05-25T15:19:18.466Z,5.30
2023-05-25T15:21:47.562Z,4.90
2023-05-25T15:24:16.744Z,4.57
2023-05-25T15:26:44.684Z,5.43
2023-05-25T15:29:12.419Z,6.23
2023-05-25T15:31:40.239Z,6.20
2023-05-25T15:34:09.123Z,5.77
2023-05-25T15:36:36.848Z,4.77
2023-05-25T15:39:08.852Z,5.57
2023-05-25T15:41:36.641Z,5.10
2023-05-25T15:44:08.191Z,5.57
2023-05-25T15:46:36.238Z,5.37
2023-05-25T15:49:10.695Z,5.60
2023-05-25T15:51:41.607Z,4.20
2023-05-25T15:54:14.688Z,5.70
2023-05-25T15:56:43.301Z,4.87
2023-05-25T15:59:12.233Z,5.30
2023-05-25T16:01:40.365Z,5.10
2023-05-25T16:04:08.286Z,4.70
2023-05-25T16:06:36.336Z,5.67
2023-05-25T16:09:04.388Z,5.40
2023-05-25T16:11:34.168Z,5.33
2023-05-25T16:14:01.925Z,5.53
2023-05-25T16:16:29.756Z,7.40
2023-05-25T16:18:57.654Z,6.87
2023-05-25T16:21:25.791Z,4.83
2023-05-25T16:23:53.544Z,5.90
2023-05-25T16:26:22.489Z,5.63
2023-05-25T16:28:51.622Z,5.73
2023-05-25T16:31:19.435Z,5.97
2023-05-25T16:33:47.395Z,5.53
2023-05-25T16:36:15.130Z,5.63
2023-05-25T16:38:44.000Z,5.43
2023-05-25T16:41:12.087Z,6.17
2023-05-25T16:43:39.909Z,6.50
2023-05-25T16:46:09.079Z,6.97
2023-05-25T16:48:36.868Z,4.53
2023-05-25T16:51:04.886Z,8.00
2023-05-25T16:53:32.582Z,5.73
2023-05-25T16:56:00.299Z,6.77
2023-05-25T16:58:28.013Z,5.10
2023-05-25T17:00:55.716Z,5.83
2023-05-25T17:03:24.968Z,6.87
2023-05-25T17:05:53.915Z,6.13
2023-05-25T17:08:21.719Z,5.73
2023-05-25T17:10:50.012Z,6.40
2023-05-25T17:13:17.759Z,5.97
2023-05-25T17:15:46.036Z,6.03
2023-05-25T17:18:15.797Z,6.57
2023-05-25T17:20:45.252Z,6.43
2023-05-25T17:23:13.072Z,5.60
2023-05-25T17:25:40.861Z,4.80
2023-05-25T17:28:08.817Z,4.57
2023-05-25T17:30:36.566Z,5.13
2023-05-25T17:33:04.429Z,5.60
2023-05-25T17:35:32.314Z,4.50
2023-05-25T17:38:01.455Z,6.53
2023-05-25T17:40:29.234Z,5.00
2023-05-25T17:42:56.963Z,6.27
2023-05-25T17:45:24.730Z,6.53
2023-05-25T17:47:52.419Z,5.53
2023-05-25T17:50:20.187Z,5.43
2023-05-25T17:52:47.931Z,6.30
2023-05-25T17:55:17.132Z,4.77
2023-05-25T17:57:44.850Z,5.77
2023-05-25T18:00:14.430Z,5.80
2023-05-25T18:02:42.349Z,5.20
2023-05-25T18:05:10.258Z,6.30
2023-05-25T18:07:38.083Z,4.30
2023-05-25T18:10:06.597Z,5.20
2023-05-25T18:12:35.747Z,5.50
2023-05-25T18:15:03.747Z,5.10
2023-05-25T18:17:31.465Z,6.00
2023-05-25T18:19:59.582Z,3.90
2023-05-25T18:22:27.268Z,4.87
2023-05-25T18:24:54.987Z,6.00
2023-05-25T18:27:22.747Z,3.73
2023-05-25T18:29:51.868Z,5.40
2023-05-25T18:32:19.610Z,4.70
2023-05-25T18:34:48.294Z,7.63
2023-05-25T18:37:16.046Z,6.57
2023-05-25T18:39:43.768Z,5.47
2023-05-25T18:42:11.794Z,5.13
2023-05-25T18:44:40.129Z,4.73
2023-05-25T18:47:09.326Z,4.63
2023-05-25T18:49:38.031Z,6.20
2023-05-25T18:52:06.556Z,5.00
2023-05-25T18:54:34.239Z,4.33
2023-05-25T18:57:03.052Z,5.57
2023-05-25T18:59:31.499Z,5.90
2023-05-25T19:01:59.244Z,6.00
2023-05-25T19:04:28.381Z,6.57
2023-05-25T19:06:56.127Z,4.80
2023-05-25T19:09:23.811Z,5.83
2023-05-25T19:11:51.555Z,5.67
2023-05-25T19:14:19.261Z,4.37
2023-05-25T19:16:48.687Z,4.83
2023-05-25T19:19:16.838Z,5.93
2023-05-25T19:21:46.085Z,5.90
2023-05-25T19:24:13.844Z,4.97
2023-05-25T19:26:41.780Z,4.80
2023-05-25T19:29:09.540Z,4.10
2023-05-25T19:31:37.326Z,5.13
2023-05-25T19:34:05.075Z,5.43
2023-05-25T19:36:33.364Z,4.70
2023-05-25T19:39:02.455Z,5.80
2023-05-25T19:41:30.254Z,5.23
2023-05-25T19:43:58.005Z,5.00
2023-05-25T19:46:25.830Z,4.40
2023-05-25T19:48:53.575Z,6.00
2023-05-25T19:51:21.679Z,5.73
2023-05-25T19:53:51.395Z,4.70
2023-05-25T19:56:21.198Z,6.00
2023-05-25T19:58:48.994Z,5.33
2023-05-25T20:01:16.790Z,5.27
2023-05-25T20:03:44.771Z,5.40
2023-05-25T20:06:13.064Z,5.60
2023-05-25T20:08:40.825Z,5.37
2023-05-25T20:11:08.528Z,5.23
2023-05-25T20:13:37.586Z,5.77
2023-05-25T20:16:05.566Z,5.23
2023-05-25T20:18:33.283Z,5.60
2023-05-25T20:21:00.996Z,6.47
2023-05-25T20:23:28.720Z,6.47
2023-05-25T20:25:56.493Z,5.67
2023-05-25T20:28:24.271Z,6.03
2023-05-25T20:30:53.497Z,7.63
2023-05-25T20:33:21.589Z,6.23
2023-05-25T20:35:49.389Z,5.73
2023-05-25T20:38:17.109Z,6.23
2023-05-25T20:40:44.802Z,6.90
2023-05-25T20:43:12.578Z,5.23
2023-05-25T20:45:41.324Z,6.33
2023-05-25T20:48:10.593Z,6.17
2023-05-25T20:50:38.302Z,6.37
2023-05-25T20:53:06.093Z,6.67
2023-05-25T20:55:33.847Z,7.30
2023-05-25T20:58:01.846Z,5.77
2023-05-25T21:00:29.592Z,6.53
2023-05-25T21:02:57.465Z,6.63
2023-05-25T21:05:26.777Z,7.80
2023-05-25T21:07:54.518Z,6.20
2023-05-25T21:10:22.273Z,6.20
2023-05-25T21:12:50.008Z,7.00
2023-05-25T21:15:17.773Z,6.63
2023-05-25T21:17:45.564Z,6.40
2023-05-25T21:20:13.401Z,6.40
2023-05-25T21:22:42.667Z,6.17
2023-05-25T21:25:11.255Z,5.47
2023-05-25T21:27:38.996Z,6.13
2023-05-25T21:30:07.922Z,5.20
2023-05-25T21:32:35.742Z,5.80
2023-05-25T21:35:03.456Z,6.80
2023-05-25T21:37:31.184Z,6.90
2023-05-25T21:40:00.625Z,6.20
2023-05-25T21:42:28.380Z,6.23
2023-05-25T21:44:56.217Z,6.63
2023-05-25T21:47:24.064Z,6.37
2023-05-25T21:49:51.840Z,5.87
2023-05-25T21:52:19.754Z,6.50
2023-05-25T21:54:47.508Z,5.60
2023-05-25T21:57:16.685Z,6.20
2023-05-25T21:59:44.413Z,5.63
2023-05-25T22:02:12.179Z,7.10
2023-05-25T22:04:39.953Z,5.57
2023-05-25T22:07:07.708Z,5.73
2023-05-25T22:09:35.390Z,5.77
2023-05-25T22:12:03.230Z,6.60
2023-05-25T22:14:32.262Z,7.03
2023-05-25T22:16:59.981Z,6.10
2023-05-25T22:19:27.730Z,5.30
2023-05-25T22:21:55.486Z,6.13
2023-05-25T22:24:23.335Z,5.53
2023-05-25T22:26:51.042Z,5.97
2023-05-25T22:29:18.715Z,6.40
2023-05-25T22:31:47.836Z,6.83
2023-05-25T22:34:15.588Z,6.37
2023-05-25T22:36:43.390Z,5.87
2023-05-25T22:39:11.223Z,6.53
2023-05-25T22:41:38.960Z,6.40
2023-05-25T22:44:06.772Z,6.00
2023-05-25T22:46:34.557Z,5.63
2023-05-25T22:49:03.701Z,5.50
2023-05-25T22:51:31.540Z,5.43
2023-05-25T22:53:59.322Z,5.53
2023-05-25T22:56:27.650Z,5.57
2023-05-25T22:58:55.376Z,6.13
2023-05-25T23:01:23.222Z,5.80
2023-05-25T23:03:51.038Z,6.07
2023-05-25T23:06:20.944Z,5.53
2023-05-25T23:08:48.695Z,7.13
2023-05-25T23:11:16.395Z,6.20
2023-05-25T23:13:44.066Z,6.73
2023-05-25T23:16:15.140Z,6.07
2023-05-25T23:18:43.229Z,5.57
2023-05-25T23:21:11.032Z,7.77
2023-05-25T23:23:40.141Z,6.63
2023-05-25T23:26:07.964Z,7.10
2023-05-25T23:28:35.795Z,6.27
2023-05-25T23:31:03.574Z,6.63
2023-05-25T23:33:31.326Z,4.80
2023-05-25T23:36:00.404Z,6.17
2023-05-25T23:38:28.106Z,5.63
2023-05-25T23:40:57.178Z,7.13
2023-05-25T23:43:25.274Z,6.27
2023-05-25T23:45:53.038Z,5.87
2023-05-25T23:48:20.817Z,6.27
2023-05-25T23:50:48.538Z,6.40
2023-05-25T23:53:16.341Z,5.40
2023-05-25T23:55:44.270Z,6.30
2023-05-25T23:58:13.448Z,6.33
